Time,TemperatureF,DewpointF,PressureIn,WindDirection,WindDirectionDegrees,WindSpeedMPH,WindSpeedGustMPH,Humidity,HourlyPrecipIn,Conditions,Clouds,dailyrainin,SoftwareType,DateUTC
2013-02-16 00:00:00,31.3,21.2,30.17,North,0,0.0,0.0,66,0.00,,,0.00,WUHU216HW,2013-02-16 06:00:00,
2013-02-16 00:05:00,31.1,21.1,30.16,North,0,1.1,1.1,66,0.00,,,0.00,WUHU216HW,2013-02-16 06:05:00,
2013-02-16 00:10:00,31.0,21.2,30.17,West,270,0.4,1.1,67,0.00,,,0.00,WUHU216HW,2013-02-16 06:10:00,
2013-02-16 00:15:00,30.6,20.9,30.16,West,270,1.1,1.1,67,0.00,,,0.00,WUHU216HW,2013-02-16 06:15:00,
2013-02-16 00:20:00,30.4,21.1,30.17,WNW,293,0.2,1.1,68,0.00,,,0.00,WUHU216HW,2013-02-16 06:20:00,
2013-02-16 00:25:00,30.2,20.9,30.17,West,270,0.0,0.9,68,0.00,,,0.00,WUHU216HW,2013-02-16 06:25:00,
2013-02-16 00:30:00,30.1,20.7,30.17,West,270,0.2,0.7,68,0.00,,,0.00,WUHU216HW,2013-02-16 06:30:00,
2013-02-16 00:35:00,29.9,20.9,30.16,West,270,0.7,1.1,69,0.00,,,0.00,WUHU216HW,2013-02-16 06:35:00,
2013-02-16 00:40:00,30.1,21.4,30.16,West,270,0.2,1.1,70,0.00,,,0.00,WUHU216HW,2013-02-16 06:40:00,
2013-02-16 00:45:00,30.1,21.4,30.17,West,270,0.0,0.9,70,0.00,,,0.00,WUHU216HW,2013-02-16 06:45:00,
2013-02-16 00:50:00,30.1,21.4,30.17,West,270,0.4,0.9,70,0.00,,,0.00,WUHU216HW,2013-02-16 06:50:00,
2013-02-16 00:55:00,30.2,21.6,30.17,West,270,0.2,0.4,70,0.00,,,0.00,WUHU216HW,2013-02-16 06:55:00,
2013-02-16 01:00:00,30.1,21.4,30.17,West,270,0.0,0.4,70,0.00,,,0.00,WUHU216HW,2013-02-16 07:00:00,
2013-02-16 01:05:00,29.9,21.2,30.16,West,270,0.0,0.4,70,0.00,,,0.00,WUHU216HW,2013-02-16 07:05:00,
2013-02-16 01:10:00,29.9,21.2,30.16,West,270,0.4,1.6,70,0.00,,,0.00,WUHU216HW,2013-02-16 07:10:00,
2013-02-16 01:15:00,29.9,21.2,30.16,West,270,0.0,1.6,70,0.00,,,0.00,WUHU216HW,2013-02-16 07:15:00,
2013-02-16 01:20:00,29.9,21.2,30.16,West,270,0.0,0.0,70,0.00,,,0.00,WUHU216HW,2013-02-16 07:20:00,
2013-02-16 01:25:00,29.9,21.2,30.16,West,270,0.0,0.0,70,0.00,,,0.00,WUHU216HW,2013-02-16 07:25:00,
2013-02-16 01:30:00,29.5,21.0,30.16,West,270,0.0,0.0,70,0.00,,,0.00,WUHU216HW,2013-02-16 07:30:00,
2013-02-16 01:35:00,29.3,20.8,30.16,West,270,0.0,0.0,70,0.00,,,0.00,WUHU216HW,2013-02-16 07:35:00,
2013-02-16 01:42:00,29.0,20.8,30.16,West,270,0.0,0.0,71,0.00,,,0.00,WUHU216HW,2013-02-16 07:42:00,
2013-02-16 01:47:00,28.8,20.6,30.16,West,270,0.0,0.0,71,0.00,,,0.00,WUHU216HW,2013-02-16 07:47:00,
2013-02-16 01:52:00,28.6,20.4,30.16,West,270,0.4,0.4,71,0.00,,,0.00,WUHU216HW,2013-02-16 07:52:00,
2013-02-16 01:58:00,28.4,20.6,30.16,West,270,0.0,0.7,72,0.00,,,0.00,WUHU216HW,2013-02-16 07:58:00,
2013-02-16 02:03:00,28.4,20.9,30.17,West,270,0.2,0.7,73,0.00,,,0.00,WUHU216HW,2013-02-16 08:03:00,
2013-02-16 02:08:00,28.3,20.7,30.17,West,270,0.0,0.4,73,0.00,,,0.00,WUHU216HW,2013-02-16 08:08:00,
2013-02-16 02:13:00,28.3,20.4,30.16,West,270,0.0,0.0,72,0.00,,,0.00,WUHU216HW,2013-02-16 08:13:00,
2013-02-16 02:18:00,28.1,20.3,30.16,West,270,0.0,0.2,72,0.00,,,0.00,WUHU216HW,2013-02-16 08:18:00,
2013-02-16 02:23:00,27.7,20.2,30.16,West,270,0.0,0.2,73,0.00,,,0.00,WUHU216HW,2013-02-16 08:23:00,
2013-02-16 02:28:00,27.7,20.2,30.16,West,270,0.0,0.0,73,0.00,,,0.00,WUHU216HW,2013-02-16 08:28:00,
2013-02-16 02:33:00,27.7,20.2,30.16,West,270,0.0,0.0,73,0.00,,,0.00,WUHU216HW,2013-02-16 08:33:00,
2013-02-16 02:38:00,27.7,20.2,30.16,West,270,0.0,0.4,73,0.00,,,0.00,WUHU216HW,2013-02-16 08:38:00,
2013-02-16 02:43:00,27.7,20.2,30.16,West,270,0.0,0.4,73,0.00,,,0.00,WUHU216HW,2013-02-16 08:43:00,
2013-02-16 02:48:00,27.7,20.2,30.15,West,270,0.0,0.0,73,0.00,,,0.00,WUHU216HW,2013-02-16 08:48:00,
2013-02-16 02:53:00,27.7,20.2,30.15,West,270,0.0,0.4,73,0.00,,,0.00,WUHU216HW,2013-02-16 08:53:00,
2013-02-16 02:58:00,27.5,20.0,30.16,West,270,0.0,0.4,73,0.00,,,0.00,WUHU216HW,2013-02-16 08:58:00,
2013-02-16 03:05:00,27.4,19.5,30.16,WSW,248,2.9,2.9,72,0.00,,,0.00,WUHU216HW,2013-02-16 09:05:00,
2013-02-16 03:10:00,27.2,19.6,30.16,West,270,0.4,3.8,73,0.00,,,0.00,WUHU216HW,2013-02-16 09:10:00,
2013-02-16 03:18:00,26.8,19.6,30.16,West,270,0.4,2.9,74,0.00,,,0.00,WUHU216HW,2013-02-16 09:18:00,
2013-02-16 03:23:00,26.6,19.5,30.17,West,270,0.4,1.1,74,0.00,,,0.00,WUHU216HW,2013-02-16 09:23:00,
2013-02-16 03:28:00,26.5,19.3,30.16,West,270,1.8,2.5,74,0.00,,,0.00,WUHU216HW,2013-02-16 09:28:00,
2013-02-16 03:33:00,26.5,19.5,30.16,WSW,248,0.7,2.5,75,0.00,,,0.00,WUHU216HW,2013-02-16 09:33:00,
2013-02-16 03:38:00,26.6,19.7,30.16,WSW,248,2.5,2.5,75,0.00,,,0.00,WUHU216HW,2013-02-16 09:38:00,
2013-02-16 03:43:00,26.6,20.0,30.16,WSW,248,2.5,2.5,76,0.00,,,0.00,WUHU216HW,2013-02-16 09:43:00,
2013-02-16 03:48:00,26.8,20.2,30.16,WSW,248,0.7,2.5,76,0.00,,,0.00,WUHU216HW,2013-02-16 09:48:00,
2013-02-16 03:53:00,27.0,20.3,30.16,West,270,0.4,2.2,76,0.00,,,0.00,WUHU216HW,2013-02-16 09:53:00,
2013-02-16 03:58:00,27.0,20.1,30.16,WSW,248,0.9,1.3,75,0.00,,,0.00,WUHU216HW,2013-02-16 09:58:00,
2013-02-16 04:03:00,27.0,20.1,30.16,WSW,248,0.4,2.7,75,0.00,,,0.00,WUHU216HW,2013-02-16 10:03:00,
2013-02-16 04:08:00,27.4,20.4,30.17,West,270,0.2,2.7,75,0.00,,,0.00,WUHU216HW,2013-02-16 10:08:00,
2013-02-16 04:13:00,27.4,20.4,30.16,West,270,0.0,1.1,75,0.00,,,0.00,WUHU216HW,2013-02-16 10:13:00,
2013-02-16 04:22:00,27.7,21.1,30.16,West,270,0.2,1.8,76,0.00,,,0.00,WUHU216HW,2013-02-16 10:22:00,
2013-02-16 04:27:00,27.5,20.9,30.17,West,270,0.4,0.9,76,0.00,,,0.00,WUHU216HW,2013-02-16 10:27:00,
2013-02-16 04:32:00,27.5,20.6,30.17,West,270,0.9,0.9,75,0.00,,,0.00,WUHU216HW,2013-02-16 10:32:00,
2013-02-16 04:37:00,27.5,20.6,30.17,West,270,0.7,0.9,75,0.00,,,0.00,WUHU216HW,2013-02-16 10:37:00,
2013-02-16 04:45:00,27.5,20.6,30.17,WSW,248,0.0,1.8,75,0.00,,,0.00,WUHU216HW,2013-02-16 10:45:00,
2013-02-16 04:50:00,27.7,20.8,30.17,WSW,248,0.4,1.8,75,0.00,,,0.00,WUHU216HW,2013-02-16 10:50:00,
2013-02-16 04:55:00,27.9,21.0,30.17,WSW,248,1.3,1.6,75,0.00,,,0.00,WUHU216HW,2013-02-16 10:55:00,
2013-02-16 05:00:00,27.9,21.0,30.17,WNW,293,0.9,1.3,75,0.00,,,0.00,WUHU216HW,2013-02-16 11:00:00,
2013-02-16 05:05:00,27.9,21.0,30.17,West,270,0.0,0.9,75,0.00,,,0.00,WUHU216HW,2013-02-16 11:05:00,
2013-02-16 05:10:00,27.9,21.0,30.17,WSW,248,0.7,1.1,75,0.00,,,0.00,WUHU216HW,2013-02-16 11:10:00,
2013-02-16 05:18:00,27.7,20.8,30.17,West,270,0.0,1.6,75,0.00,,,0.00,WUHU216HW,2013-02-16 11:18:00,
2013-02-16 05:23:00,27.7,20.8,30.17,West,270,0.0,0.9,75,0.00,,,0.00,WUHU216HW,2013-02-16 11:23:00,
2013-02-16 05:28:00,27.5,20.6,30.17,West,270,0.0,0.9,75,0.00,,,0.00,WUHU216HW,2013-02-16 11:28:00,
2013-02-16 05:33:00,27.4,20.2,30.17,West,270,0.0,0.4,74,0.00,,,0.00,WUHU216HW,2013-02-16 11:33:00,
2013-02-16 05:38:00,27.4,20.2,30.17,West,270,0.9,0.9,74,0.00,,,0.00,WUHU216HW,2013-02-16 11:38:00,
2013-02-16 05:43:00,27.4,20.2,30.17,West,270,0.0,1.1,74,0.00,,,0.00,WUHU216HW,2013-02-16 11:43:00,
2013-02-16 05:48:00,27.4,20.2,30.17,West,270,0.9,1.1,74,0.00,,,0.00,WUHU216HW,2013-02-16 11:48:00,
2013-02-16 05:53:00,27.2,20.0,30.17,West,270,0.0,1.8,74,0.00,,,0.00,WUHU216HW,2013-02-16 11:53:00,
2013-02-16 05:58:00,27.0,19.8,30.18,West,270,0.0,1.8,74,0.00,,,0.00,WUHU216HW,2013-02-16 11:58:00,
2013-02-16 06:03:00,27.0,19.8,30.17,West,270,0.0,0.4,74,0.00,,,0.00,WUHU216HW,2013-02-16 12:03:00,
2013-02-16 06:12:00,26.5,19.3,30.18,West,270,0.0,0.0,74,0.00,,,0.00,WUHU216HW,2013-02-16 12:12:00,
2013-02-16 06:17:00,26.3,19.1,30.18,West,270,0.0,0.0,74,0.00,,,0.00,WUHU216HW,2013-02-16 12:17:00,
2013-02-16 06:22:00,25.9,18.7,30.18,West,270,0.0,0.0,74,0.00,,,0.00,WUHU216HW,2013-02-16 12:22:00,
2013-02-16 06:27:00,25.6,18.4,30.18,West,270,0.9,0.9,74,0.00,,,0.00,WUHU216HW,2013-02-16 12:27:00,
2013-02-16 06:32:00,25.6,18.7,30.18,West,270,0.4,0.9,75,0.00,,,0.00,WUHU216HW,2013-02-16 12:32:00,
2013-02-16 06:37:00,25.6,18.7,30.18,West,270,0.0,0.9,75,0.00,,,0.00,WUHU216HW,2013-02-16 12:37:00,
2013-02-16 06:50:00,25.6,19.0,30.18,West,270,0.0,1.6,76,0.00,,,0.00,WUHU216HW,2013-02-16 12:50:00,
2013-02-16 06:55:00,25.7,19.2,30.18,WSW,248,0.2,1.8,76,0.00,,,0.00,WUHU216HW,2013-02-16 12:55:00,
2013-02-16 07:00:00,25.7,19.2,30.18,WSW,248,0.0,1.8,76,0.00,,,0.00,WUHU216HW,2013-02-16 13:00:00,
2013-02-16 07:05:00,25.9,19.4,30.19,WSW,248,1.1,1.1,76,0.00,,,0.00,WUHU216HW,2013-02-16 13:05:00,
2013-02-16 07:10:00,26.1,19.5,30.19,WSW,248,1.8,1.8,76,0.00,,,0.00,WUHU216HW,2013-02-16 13:10:00,
2013-02-16 07:15:00,26.1,19.5,30.18,WSW,248,0.4,1.8,76,0.00,,,0.00,WUHU216HW,2013-02-16 13:15:00,
2013-02-16 07:23:00,26.1,19.5,30.18,WSW,248,1.8,1.8,76,0.00,,,0.00,WUHU216HW,2013-02-16 13:23:00,
2013-02-16 07:28:00,27.0,20.7,30.18,WSW,248,0.2,1.8,77,0.00,,,0.00,WUHU216HW,2013-02-16 13:28:00,
2013-02-16 07:33:00,29.3,23.0,30.18,WSW,248,0.0,1.1,77,0.00,,,0.00,WUHU216HW,2013-02-16 13:33:00,
2013-02-16 07:38:00,32.8,26.6,30.18,WSW,248,1.1,1.1,78,0.00,,,0.00,WUHU216HW,2013-02-16 13:38:00,
2013-02-16 07:43:00,36.7,29.5,30.18,WSW,248,0.0,2.0,75,0.00,,,0.00,WUHU216HW,2013-02-16 13:43:00,
2013-02-16 07:48:00,40.0,31.6,30.19,WSW,248,0.0,2.0,72,0.00,,,0.00,WUHU216HW,2013-02-16 13:48:00,
2013-02-16 07:53:00,44.1,34.6,30.19,WSW,248,0.0,0.0,69,0.00,,,0.00,WUHU216HW,2013-02-16 13:53:00,
2013-02-16 07:58:00,48.2,36.3,30.19,WSW,248,0.0,0.0,63,0.00,,,0.00,WUHU216HW,2013-02-16 13:58:00,
2013-02-16 08:03:00,50.8,36.9,30.19,WSW,248,0.0,0.9,59,0.00,,,0.00,WUHU216HW,2013-02-16 14:03:00,
2013-02-16 08:08:00,53.1,37.7,30.19,WSW,248,0.7,2.0,56,0.00,,,0.00,WUHU216HW,2013-02-16 14:08:00,
2013-02-16 08:17:00,57.6,39.3,30.20,WSW,248,2.0,4.7,50,0.00,,,0.00,WUHU216HW,2013-02-16 14:17:00,
2013-02-16 08:22:00,58.5,38.3,30.20,WSW,248,0.4,4.7,47,0.00,,,0.00,WUHU216HW,2013-02-16 14:22:00,
2013-02-16 08:27:00,60.3,39.3,30.20,WSW,248,4.0,4.0,46,0.00,,,0.00,WUHU216HW,2013-02-16 14:27:00,
2013-02-16 08:32:00,59.6,35.8,30.21,WSW,248,5.4,5.4,41,0.00,,,0.00,WUHU216HW,2013-02-16 14:32:00,
2013-02-16 08:37:00,59.4,35.6,30.21,WSW,248,4.5,5.4,41,0.00,,,0.00,WUHU216HW,2013-02-16 14:37:00,
2013-02-16 08:42:00,60.7,36.2,30.21,WSW,248,2.7,4.9,40,0.00,,,0.00,WUHU216HW,2013-02-16 14:42:00,
2013-02-16 08:47:00,61.0,34.4,30.21,WSW,248,5.1,5.1,37,0.00,,,0.00,WUHU216HW,2013-02-16 14:47:00,
2013-02-16 08:52:00,60.3,33.0,30.21,West,270,4.7,6.3,36,0.00,,,0.00,WUHU216HW,2013-02-16 14:52:00,
2013-02-16 08:57:00,59.6,32.4,30.21,WSW,248,5.8,6.3,36,0.00,,,0.00,WUHU216HW,2013-02-16 14:57:00,
2013-02-16 09:02:00,59.8,32.6,30.20,WSW,248,1.1,6.3,36,0.00,,,0.00,WUHU216HW,2013-02-16 15:02:00,
2013-02-16 09:07:00,61.7,34.3,30.21,West,270,6.9,6.9,36,0.00,,,0.00,WUHU216HW,2013-02-16 15:07:00,
2013-02-16 09:12:00,62.6,32.2,30.20,WSW,248,8.7,8.7,32,0.00,,,0.00,WUHU216HW,2013-02-16 15:12:00,
2013-02-16 09:17:00,62.3,31.9,30.20,WSW,248,4.7,9.2,32,0.00,,,0.00,WUHU216HW,2013-02-16 15:17:00,
2013-02-16 09:22:00,63.0,32.6,30.20,West,270,9.2,9.2,32,0.00,,,0.00,WUHU216HW,2013-02-16 15:22:00,
2013-02-16 09:30:00,65.7,35.0,30.20,West,270,1.1,9.2,32,0.00,,,0.00,WUHU216HW,2013-02-16 15:30:00,
2013-02-16 09:35:00,67.7,35.2,30.20,WSW,248,10.5,10.5,30,0.00,,,0.00,WUHU216HW,2013-02-16 15:35:00,
2013-02-16 09:40:00,68.0,35.5,30.20,WSW,248,8.3,10.5,30,0.00,,,0.00,WUHU216HW,2013-02-16 15:40:00,
2013-02-16 09:45:00,67.0,33.6,30.20,WSW,248,3.4,8.3,29,0.00,,,0.00,WUHU216HW,2013-02-16 15:45:00,
2013-02-16 09:54:00,65.9,31.7,30.20,West,270,4.0,9.8,28,0.00,,,0.00,WUHU216HW,2013-02-16 15:54:00,
2013-02-16 09:59:00,66.1,31.9,30.20,WSW,248,2.7,9.8,28,0.00,,,0.00,WUHU216HW,2013-02-16 15:59:00,
2013-02-16 10:11:00,67.1,30.8,30.20,WSW,248,4.7,10.5,26,0.00,,,0.00,WUHU216HW,2013-02-16 16:11:00,
2013-02-16 10:16:00,68.4,31.8,30.19,WSW,248,7.8,8.5,26,0.00,,,0.00,WUHU216HW,2013-02-16 16:16:00,
2013-02-16 10:21:00,68.8,32.1,30.19,West,270,3.1,8.1,26,0.00,,,0.00,WUHU216HW,2013-02-16 16:21:00,
2013-02-16 10:26:00,69.5,31.8,30.19,SW,225,7.2,8.3,25,0.00,,,0.00,WUHU216HW,2013-02-16 16:26:00,
2013-02-16 10:31:00,69.5,31.8,30.19,WNW,293,8.5,8.5,25,0.00,,,0.00,WUHU216HW,2013-02-16 16:31:00,
2013-02-16 10:41:00,71.3,33.3,30.19,West,270,3.4,4.9,25,0.00,,,0.00,WUHU216HW,2013-02-16 16:41:00,
2013-02-16 10:46:00,73.6,34.2,30.19,West,270,6.9,6.9,24,0.00,,,0.00,WUHU216HW,2013-02-16 16:46:00,
2013-02-16 10:51:00,74.0,33.6,30.19,West,270,8.5,8.5,23,0.00,,,0.00,WUHU216HW,2013-02-16 16:51:00,
2013-02-16 10:56:00,73.1,32.8,30.19,WSW,248,7.8,8.9,23,0.00,,,0.00,WUHU216HW,2013-02-16 16:56:00,
2013-02-16 11:01:00,73.1,33.8,30.19,WSW,248,4.9,11.0,24,0.00,,,0.00,WUHU216HW,2013-02-16 17:01:00,
2013-02-16 11:06:00,73.6,33.2,30.19,West,270,3.8,11.0,23,0.00,,,0.00,WUHU216HW,2013-02-16 17:06:00,
2013-02-16 11:12:00,74.0,33.6,30.19,SW,225,4.9,9.2,23,0.00,,,0.00,WUHU216HW,2013-02-16 17:12:00,
2013-02-16 11:17:00,74.5,32.9,30.19,WSW,248,6.3,7.6,22,0.00,,,0.00,WUHU216HW,2013-02-16 17:17:00,
2013-02-16 11:25:00,74.0,33.6,30.18,WNW,293,1.8,9.4,23,0.00,,,0.00,WUHU216HW,2013-02-16 17:25:00,
2013-02-16 11:30:00,74.7,33.1,30.19,NNW,338,1.6,8.5,22,0.00,,,0.00,WUHU216HW,2013-02-16 17:30:00,
2013-02-16 11:38:00,76.1,34.3,30.18,West,270,2.9,8.7,22,0.00,,,0.00,WUHU216HW,2013-02-16 17:38:00,
2013-02-16 11:43:00,75.2,33.6,30.17,West,270,1.1,8.7,22,0.00,,,0.00,WUHU216HW,2013-02-16 17:43:00,
2013-02-16 11:55:00,78.5,35.1,30.17,NW,315,3.1,6.9,21,0.00,,,0.00,WUHU216HW,2013-02-16 17:55:00,
2013-02-16 12:00:00,78.5,32.4,30.17,WSW,248,3.4,7.2,19,0.00,,,0.00,WUHU216HW,2013-02-16 18:00:00,
2013-02-16 12:08:00,77.4,34.3,30.16,West,270,6.0,7.2,21,0.00,,,0.00,WUHU216HW,2013-02-16 18:08:00,
2013-02-16 12:13:00,77.9,34.8,30.16,NW,315,1.3,6.0,21,0.00,,,0.00,WUHU216HW,2013-02-16 18:13:00,
2013-02-16 12:18:00,77.6,31.7,30.16,SSW,203,1.8,6.0,19,0.00,,,0.00,WUHU216HW,2013-02-16 18:18:00,
2013-02-16 12:23:00,78.5,35.1,30.16,NW,315,1.3,4.7,21,0.00,,,0.00,WUHU216HW,2013-02-16 18:23:00,
2013-02-16 12:28:00,78.8,32.7,30.16,NW,315,2.2,4.5,19,0.00,,,0.00,WUHU216HW,2013-02-16 18:28:00,
2013-02-16 12:33:00,78.7,32.6,30.15,WNW,293,3.1,6.9,19,0.00,,,0.00,WUHU216HW,2013-02-16 18:33:00,
2013-02-16 12:38:00,78.5,32.4,30.15,ESE,113,2.7,6.9,19,0.00,,,0.00,WUHU216HW,2013-02-16 18:38:00,
2013-02-16 12:43:00,76.1,30.6,30.14,East,90,2.2,4.7,19,0.00,,,0.00,WUHU216HW,2013-02-16 18:43:00,
2013-02-16 12:48:00,77.0,34.0,30.14,ENE,68,2.9,5.8,21,0.00,,,0.00,WUHU216HW,2013-02-16 18:48:00,
2013-02-16 12:53:00,77.9,34.8,30.13,NNW,338,1.1,5.8,21,0.00,,,0.00,WUHU216HW,2013-02-16 18:53:00,
2013-02-16 12:58:00,78.1,33.9,30.13,West,270,2.5,5.4,20,0.00,,,0.00,WUHU216HW,2013-02-16 18:58:00,
2013-02-16 13:03:00,79.2,34.8,30.12,West,270,2.5,5.4,20,0.00,,,0.00,WUHU216HW,2013-02-16 19:03:00,
2013-02-16 13:08:00,79.0,32.9,30.12,NE,45,4.7,4.7,19,0.00,,,0.00,WUHU216HW,2013-02-16 19:08:00,
2013-02-16 13:13:00,79.0,32.9,30.11,NNE,23,1.8,5.4,19,0.00,,,0.00,WUHU216HW,2013-02-16 19:13:00,
2013-02-16 13:18:00,79.7,33.5,30.11,NW,315,2.5,5.4,19,0.00,,,0.00,WUHU216HW,2013-02-16 19:18:00,
2013-02-16 13:32:00,79.9,33.7,30.10,West,270,1.6,7.8,19,0.00,,,0.00,WUHU216HW,2013-02-16 19:32:00,
2013-02-16 13:37:00,79.0,32.9,30.10,West,270,10.5,10.5,19,0.00,,,0.00,WUHU216HW,2013-02-16 19:37:00,
2013-02-16 13:42:00,76.7,31.0,30.09,WSW,248,5.1,10.5,19,0.00,,,0.00,WUHU216HW,2013-02-16 19:42:00,
2013-02-16 13:47:00,76.7,33.7,30.09,WNW,293,2.2,10.5,21,0.00,,,0.00,WUHU216HW,2013-02-16 19:47:00,
2013-02-16 13:52:00,76.5,33.6,30.09,WSW,248,2.0,8.9,21,0.00,,,0.00,WUHU216HW,2013-02-16 19:52:00,
2013-02-16 13:57:00,77.0,34.0,30.08,NNW,338,2.2,8.9,21,0.00,,,0.00,WUHU216HW,2013-02-16 19:57:00,
2013-02-16 14:02:00,76.7,32.7,30.07,WSW,248,1.1,4.0,20,0.00,,,0.00,WUHU216HW,2013-02-16 20:02:00,
2013-02-16 14:07:00,76.7,32.7,30.07,West,270,2.0,4.0,20,0.00,,,0.00,WUHU216HW,2013-02-16 20:07:00,
2013-02-16 14:15:00,74.9,32.2,30.07,WSW,248,4.0,9.8,21,0.00,,,0.00,WUHU216HW,2013-02-16 20:15:00,
2013-02-16 14:20:00,74.5,32.0,30.07,WSW,248,7.6,8.3,21,0.00,,,0.00,WUHU216HW,2013-02-16 20:20:00,
2013-02-16 14:25:00,73.4,31.1,30.06,SW,225,4.5,12.1,21,0.00,,,0.00,WUHU216HW,2013-02-16 20:25:00,
2013-02-16 14:30:00,72.9,30.6,30.07,West,270,5.1,12.1,21,0.00,,,0.00,WUHU216HW,2013-02-16 20:30:00,
2013-02-16 14:35:00,72.9,31.6,30.06,NNW,338,4.0,10.7,22,0.00,,,0.00,WUHU216HW,2013-02-16 20:35:00,
2013-02-16 14:40:00,74.2,32.7,30.06,WSW,248,1.8,8.1,22,0.00,,,0.00,WUHU216HW,2013-02-16 20:40:00,
2013-02-16 14:45:00,73.4,31.1,30.06,SSW,203,4.7,6.3,21,0.00,,,0.00,WUHU216HW,2013-02-16 20:45:00,
2013-02-16 14:50:00,73.1,31.8,30.06,SW,225,3.8,8.5,22,0.00,,,0.00,WUHU216HW,2013-02-16 20:50:00,
2013-02-16 14:55:00,72.2,31.0,30.06,SW,225,4.7,8.5,22,0.00,,,0.00,WUHU216HW,2013-02-16 20:55:00,
2013-02-16 15:02:00,71.3,30.3,30.05,WNW,293,4.3,6.9,22,0.00,,,0.00,WUHU216HW,2013-02-16 21:02:00,
2013-02-16 15:07:00,70.6,30.6,30.05,WSW,248,3.6,5.6,23,0.00,,,0.00,WUHU216HW,2013-02-16 21:07:00,
2013-02-16 15:12:00,68.9,29.3,30.05,WSW,248,7.6,7.6,23,0.00,,,0.00,WUHU216HW,2013-02-16 21:12:00,
2013-02-16 15:17:00,67.1,29.7,30.05,WSW,248,2.0,8.1,25,0.00,,,0.00,WUHU216HW,2013-02-16 21:17:00,
2013-02-16 15:25:00,66.4,29.2,30.04,West,270,4.7,6.5,25,0.00,,,0.00,WUHU216HW,2013-02-16 21:25:00,
2013-02-16 15:30:00,66.1,28.8,30.04,SW,225,3.4,4.7,25,0.00,,,0.00,WUHU216HW,2013-02-16 21:30:00,
2013-02-16 15:35:00,65.7,29.5,30.04,WSW,248,4.0,6.3,26,0.00,,,0.00,WUHU216HW,2013-02-16 21:35:00,
2013-02-16 15:40:00,65.9,29.7,30.04,NNW,338,1.3,6.3,26,0.00,,,0.00,WUHU216HW,2013-02-16 21:40:00,
2013-02-16 15:45:00,65.9,29.7,30.03,ENE,68,1.3,5.1,26,0.00,,,0.00,WUHU216HW,2013-02-16 21:45:00,
2013-02-16 15:50:00,65.5,29.3,30.03,WSW,248,6.5,6.5,26,0.00,,,0.00,WUHU216HW,2013-02-16 21:50:00,
2013-02-16 15:55:00,64.8,28.7,30.03,WSW,248,2.5,8.7,26,0.00,,,0.00,WUHU216HW,2013-02-16 21:55:00,
2013-02-16 16:00:00,64.8,30.8,30.03,West,270,2.2,8.7,28,0.00,,,0.00,WUHU216HW,2013-02-16 22:00:00,
2013-02-16 16:05:00,64.8,30.8,30.03,SW,225,4.7,4.7,28,0.00,,,0.00,WUHU216HW,2013-02-16 22:05:00,
2013-02-16 16:10:00,64.3,28.3,30.02,SW,225,6.3,6.3,26,0.00,,,0.00,WUHU216HW,2013-02-16 22:10:00,
2013-02-16 16:15:00,63.7,28.8,30.02,West,270,8.3,8.3,27,0.00,,,0.00,WUHU216HW,2013-02-16 22:15:00,
2013-02-16 16:20:00,63.5,28.6,30.02,WSW,248,8.3,9.2,27,0.00,,,0.00,WUHU216HW,2013-02-16 22:20:00,
2013-02-16 16:29:00,63.0,28.2,30.02,NW,315,1.3,8.3,27,0.00,,,0.00,WUHU216HW,2013-02-16 22:29:00,
2013-02-16 16:34:00,63.0,28.2,30.02,West,270,2.9,5.1,27,0.00,,,0.00,WUHU216HW,2013-02-16 22:34:00,
2013-02-16 16:39:00,62.8,28.0,30.02,West,270,2.7,4.0,27,0.00,,,0.00,WUHU216HW,2013-02-16 22:39:00,
2013-02-16 16:44:00,62.6,27.9,30.02,WSW,248,4.7,4.7,27,0.00,,,0.00,WUHU216HW,2013-02-16 22:44:00,
2013-02-16 16:52:00,62.5,28.7,30.01,West,270,0.7,8.9,28,0.00,,,0.00,WUHU216HW,2013-02-16 22:52:00,
2013-02-16 16:57:00,62.3,28.5,30.01,West,270,5.1,6.5,28,0.00,,,0.00,WUHU216HW,2013-02-16 22:57:00,
2013-02-16 17:02:00,61.9,28.2,30.02,SW,225,2.7,6.3,28,0.00,,,0.00,WUHU216HW,2013-02-16 23:02:00,
2013-02-16 17:07:00,61.7,28.1,30.02,WNW,293,4.0,4.5,28,0.00,,,0.00,WUHU216HW,2013-02-16 23:07:00,
2013-02-16 17:15:00,61.4,27.7,30.02,SW,225,4.0,6.5,28,0.00,,,0.00,WUHU216HW,2013-02-16 23:15:00,
2013-02-16 17:20:00,61.2,27.5,30.02,WSW,248,1.1,6.5,28,0.00,,,0.00,WUHU216HW,2013-02-16 23:20:00,
2013-02-16 17:25:00,60.8,27.3,30.01,West,270,0.4,4.5,28,0.00,,,0.00,WUHU216HW,2013-02-16 23:25:00,
2013-02-16 17:30:00,60.7,28.1,30.01,WSW,248,1.8,3.1,29,0.00,,,0.00,WUHU216HW,2013-02-16 23:30:00,
2013-02-16 17:35:00,60.3,27.8,30.01,WSW,248,0.9,3.1,29,0.00,,,0.00,WUHU216HW,2013-02-16 23:35:00,
2013-02-16 17:40:00,60.1,27.6,30.01,WSW,248,3.4,3.4,29,0.00,,,0.00,WUHU216HW,2013-02-16 23:40:00,
2013-02-16 17:45:00,59.9,27.5,30.01,West,270,4.0,4.0,29,0.00,,,0.00,WUHU216HW,2013-02-16 23:45:00,
2013-02-16 17:50:00,59.6,27.2,30.01,WSW,248,0.9,4.0,29,0.00,,,0.00,WUHU216HW,2013-02-16 23:50:00,
2013-02-16 17:55:00,59.0,27.7,30.00,WSW,248,0.4,2.7,30,0.00,,,0.00,WUHU216HW,2013-02-16 23:55:00,
2013-02-16 18:00:00,58.5,27.9,30.01,WSW,248,0.0,1.1,31,0.00,,,0.00,WUHU216HW,2013-02-17 00:00:00,
2013-02-16 18:05:00,57.8,28.0,30.00,WSW,248,0.0,0.9,32,0.00,,,0.00,WUHU216HW,2013-02-17 00:05:00,
2013-02-16 18:10:00,57.1,28.1,30.00,WSW,248,0.0,0.0,33,0.00,,,0.00,WUHU216HW,2013-02-17 00:10:00,
2013-02-16 18:15:00,56.0,27.8,30.00,WSW,248,0.0,0.0,34,0.00,,,0.00,WUHU216HW,2013-02-17 00:15:00,
2013-02-16 18:20:00,54.9,28.3,30.00,WSW,248,0.0,0.0,36,0.00,,,0.00,WUHU216HW,2013-02-17 00:20:00,
2013-02-16 18:25:00,54.0,28.2,30.00,WSW,248,0.0,0.0,37,0.00,,,0.00,WUHU216HW,2013-02-17 00:25:00,
2013-02-16 18:30:00,53.1,28.0,30.00,WSW,248,0.0,0.0,38,0.00,,,0.00,WUHU216HW,2013-02-17 00:30:00,
2013-02-16 18:35:00,52.2,27.9,30.00,WSW,248,0.0,0.0,39,0.00,,,0.00,WUHU216HW,2013-02-17 00:35:00,
2013-02-16 18:40:00,51.3,27.8,30.00,WSW,248,0.0,0.0,40,0.00,,,0.00,WUHU216HW,2013-02-17 00:40:00,
2013-02-16 18:45:00,50.4,27.6,30.00,WSW,248,0.0,0.0,41,0.00,,,0.00,WUHU216HW,2013-02-17 00:45:00,
2013-02-16 18:50:00,49.3,26.6,30.00,WSW,248,0.0,0.0,41,0.00,,,0.00,WUHU216HW,2013-02-17 00:50:00,
2013-02-16 18:55:00,48.8,26.7,30.00,WSW,248,0.0,0.0,42,0.00,,,0.00,WUHU216HW,2013-02-17 00:55:00,
2013-02-16 19:00:00,48.2,26.6,30.00,WSW,248,0.0,0.0,43,0.00,,,0.00,WUHU216HW,2013-02-17 01:00:00,
2013-02-16 19:05:00,47.3,26.4,30.00,WSW,248,0.0,0.0,44,0.00,,,0.00,WUHU216HW,2013-02-17 01:05:00,
2013-02-16 19:10:00,46.6,26.3,30.00,WSW,248,0.0,0.2,45,0.00,,,0.00,WUHU216HW,2013-02-17 01:10:00,
2013-02-16 19:15:00,46.1,26.3,30.00,WSW,248,0.0,0.2,46,0.00,,,0.00,WUHU216HW,2013-02-17 01:15:00,
2013-02-16 19:20:00,45.4,26.2,30.00,WSW,248,0.4,0.4,47,0.00,,,0.00,WUHU216HW,2013-02-17 01:20:00,
2013-02-16 19:25:00,45.0,26.5,30.01,WSW,248,0.0,0.4,48,0.00,,,0.00,WUHU216HW,2013-02-17 01:25:00,
2013-02-16 19:30:00,44.3,26.8,30.00,WSW,248,0.7,0.7,50,0.00,,,0.00,WUHU216HW,2013-02-17 01:30:00,
2013-02-16 19:35:00,43.9,27.0,30.00,West,270,0.4,1.3,51,0.00,,,0.00,WUHU216HW,2013-02-17 01:35:00,
2013-02-16 19:40:00,43.6,27.6,30.00,West,270,0.0,1.3,53,0.00,,,0.00,WUHU216HW,2013-02-17 01:40:00,
2013-02-16 19:45:00,43.0,27.0,30.00,West,270,0.7,1.1,53,0.00,,,0.00,WUHU216HW,2013-02-17 01:45:00,
2013-02-16 19:50:00,42.7,26.6,30.00,West,270,0.0,1.1,53,0.00,,,0.00,WUHU216HW,2013-02-17 01:50:00,
2013-02-16 19:55:00,42.3,26.7,30.00,West,270,2.5,2.5,54,0.00,,,0.00,WUHU216HW,2013-02-17 01:55:00,
2013-02-16 20:00:00,41.9,27.3,30.00,West,270,0.0,2.5,56,0.00,,,0.00,WUHU216HW,2013-02-17 02:00:00,
2013-02-16 20:05:00,41.6,26.6,30.00,West,270,0.0,2.5,55,0.00,,,0.00,WUHU216HW,2013-02-17 02:05:00,
2013-02-16 20:10:00,41.2,26.2,30.00,West,270,0.0,0.0,55,0.00,,,0.00,WUHU216HW,2013-02-17 02:10:00,
2013-02-16 20:15:00,40.7,26.1,30.00,West,270,0.0,0.0,56,0.00,,,0.00,WUHU216HW,2013-02-17 02:15:00,
2013-02-16 20:20:00,40.3,25.7,30.01,West,270,0.0,0.4,56,0.00,,,0.00,WUHU216HW,2013-02-17 02:20:00,
2013-02-16 20:25:00,40.0,25.8,30.01,West,270,0.0,0.4,57,0.00,,,0.00,WUHU216HW,2013-02-17 02:25:00,
2013-02-16 20:30:00,39.6,25.9,30.01,West,270,0.0,0.0,58,0.00,,,0.00,WUHU216HW,2013-02-17 02:30:00,
2013-02-16 20:35:00,39.2,25.6,30.01,West,270,0.0,0.0,58,0.00,,,0.00,WUHU216HW,2013-02-17 02:35:00,
2013-02-16 20:40:00,38.9,25.8,30.01,West,270,0.0,0.0,59,0.00,,,0.00,WUHU216HW,2013-02-17 02:40:00,
2013-02-16 20:45:00,38.5,25.8,30.01,West,270,0.0,0.2,60,0.00,,,0.00,WUHU216HW,2013-02-17 02:45:00,
2013-02-16 20:50:00,38.5,26.2,30.01,West,270,0.0,0.2,61,0.00,,,0.00,WUHU216HW,2013-02-17 02:50:00,
2013-02-16 20:55:00,38.2,25.8,30.01,West,270,0.0,0.0,61,0.00,,,0.00,WUHU216HW,2013-02-17 02:55:00,
2013-02-16 21:00:00,37.8,25.6,30.01,West,270,0.0,0.4,61,0.00,,,0.00,WUHU216HW,2013-02-17 03:00:00,
2013-02-16 21:06:00,37.4,25.2,30.01,West,270,0.0,0.4,61,0.00,,,0.00,WUHU216HW,2013-02-17 03:06:00,
2013-02-16 21:10:00,37.3,25.5,30.01,West,270,0.0,0.4,62,0.00,,,0.00,WUHU216HW,2013-02-17 03:10:00,
2013-02-16 21:15:00,37.1,25.3,30.01,West,270,0.0,0.4,62,0.00,,,0.00,WUHU216HW,2013-02-17 03:15:00,
2013-02-16 21:21:00,37.1,25.7,30.01,West,270,0.0,0.0,63,0.00,,,0.00,WUHU216HW,2013-02-17 03:21:00,
2013-02-16 21:26:00,36.9,25.1,30.01,West,270,1.1,1.1,62,0.00,,,0.00,WUHU216HW,2013-02-17 03:26:00,
2013-02-16 21:30:00,36.5,24.8,30.01,West,270,0.0,1.1,62,0.00,,,0.00,WUHU216HW,2013-02-17 03:30:00,
2013-02-16 21:35:00,36.2,24.5,30.01,West,270,0.0,0.7,62,0.00,,,0.00,WUHU216HW,2013-02-17 03:35:00,
2013-02-16 21:40:00,36.0,24.7,30.01,West,270,0.0,0.4,63,0.00,,,0.00,WUHU216HW,2013-02-17 03:40:00,
2013-02-16 21:45:00,35.6,24.3,30.01,West,270,0.0,0.4,63,0.00,,,0.00,WUHU216HW,2013-02-17 03:45:00,
2013-02-16 21:50:00,35.5,24.5,30.01,West,270,0.0,0.0,64,0.00,,,0.00,WUHU216HW,2013-02-17 03:50:00,
2013-02-16 21:55:00,35.1,24.5,30.01,West,270,0.0,0.2,65,0.00,,,0.00,WUHU216HW,2013-02-17 03:55:00,
2013-02-16 22:04:00,34.9,24.7,30.01,West,270,0.0,0.0,66,0.00,,,0.00,WUHU216HW,2013-02-17 04:04:00,
2013-02-16 22:09:00,34.9,24.7,30.01,West,270,0.0,0.7,66,0.00,,,0.00,WUHU216HW,2013-02-17 04:09:00,
2013-02-16 22:14:00,34.7,24.5,30.00,West,270,0.0,0.7,66,0.00,,,0.00,WUHU216HW,2013-02-17 04:14:00,
2013-02-16 22:19:00,34.6,24.7,30.00,West,270,0.9,1.8,67,0.00,,,0.00,WUHU216HW,2013-02-17 04:19:00,
2013-02-16 22:27:00,34.2,24.7,30.00,West,270,0.9,1.3,68,0.00,,,0.00,WUHU216HW,2013-02-17 04:27:00,
2013-02-16 22:32:00,34.2,24.7,30.00,West,270,0.4,0.9,68,0.00,,,0.00,WUHU216HW,2013-02-17 04:32:00,
2013-02-16 22:37:00,34.2,24.7,30.00,West,270,0.4,0.9,68,0.00,,,0.00,WUHU216HW,2013-02-17 04:37:00,
2013-02-16 22:42:00,33.8,24.3,30.00,West,270,0.0,0.9,68,0.00,,,0.00,WUHU216HW,2013-02-17 04:42:00,
2013-02-16 22:47:00,33.7,24.1,30.00,West,270,0.0,0.4,68,0.00,,,0.00,WUHU216HW,2013-02-17 04:47:00,
2013-02-16 22:52:00,33.5,24.3,29.99,West,270,1.6,1.6,69,0.00,,,0.00,WUHU216HW,2013-02-17 04:52:00,
2013-02-16 22:57:00,33.5,24.3,29.99,West,270,0.2,1.6,69,0.00,,,0.00,WUHU216HW,2013-02-17 04:57:00,
2013-02-16 23:00:00,33.5,24.3,29.99,West,270,0.0,1.6,69,0.00,,,0.00,WUHU216HW,2013-02-17 05:00:00,
2013-02-16 23:05:00,33.1,24.4,29.99,West,270,0.7,0.7,70,0.00,,,0.00,WUHU216HW,2013-02-17 05:05:00,
2013-02-16 23:11:00,33.1,24.4,29.99,West,270,0.7,1.8,70,0.00,,,0.00,WUHU216HW,2013-02-17 05:11:00,
2013-02-16 23:16:00,33.1,24.4,29.99,West,270,0.7,1.6,70,0.00,,,0.00,WUHU216HW,2013-02-17 05:16:00,
2013-02-16 23:21:00,32.9,24.2,29.98,West,270,0.0,0.9,70,0.00,,,0.00,WUHU216HW,2013-02-17 05:21:00,
2013-02-16 23:26:00,32.9,24.6,29.99,West,270,0.0,0.4,71,0.00,,,0.00,WUHU216HW,2013-02-17 05:26:00,
2013-02-16 23:31:00,32.8,24.4,29.98,West,270,0.0,0.4,71,0.00,,,0.00,WUHU216HW,2013-02-17 05:31:00,
2013-02-16 23:36:00,32.6,23.9,29.98,West,270,0.0,0.0,70,0.00,,,0.00,WUHU216HW,2013-02-17 05:36:00,
2013-02-16 23:41:00,32.2,23.6,29.98,West,270,0.0,0.0,70,0.00,,,0.00,WUHU216HW,2013-02-17 05:41:00,
2013-02-16 23:46:00,32.0,23.8,29.98,West,270,0.0,0.0,71,0.00,,,0.00,WUHU216HW,2013-02-17 05:46:00,
2013-02-16 23:51:00,31.9,23.6,29.98,West,270,0.0,0.2,71,0.00,,,0.00,WUHU216HW,2013-02-17 05:51:00,
2013-02-16 23:58:00,31.7,23.4,29.98,West,270,0.0,0.0,71,0.00,,,0.00,WUHU216HW,2013-02-17 05:58:00,